sensor_id;sensor_type;location;lat;lon;timestamp;P1;durP1;ratioP1;P2;durP2;ratioP2
9288;SDS011;4683;50.864;12.086;2023-11-21T00:01:01;5.17;;;4.13;;
9288;SDS011;4683;50.864;12.086;2023-11-21T00:03:31;3.50;;;3.20;;
9288;SDS011;4683;50.864;12.086;2023-11-21T00:06:01;5.10;;;3.60;;
9288;SDS011;4683;50.864;12.086;2023-11-21T00:08:30;3.40;;;3.10;;
9288;SDS011;4683;50.864;12.086;2023-11-21T00:11:00;4.43;;;3.00;;
9288;SDS011;4683;50.864;12.086;2023-11-21T00:13:30;4.90;;;2.63;;
9288;SDS011;4683;50.864;12.086;2023-11-21T00:16:02;3.40;;;2.43;;
9288;SDS011;4683;50.864;12.086;2023-11-21T00:18:32;3.33;;;2.60;;
9288;SDS011;4683;50.864;12.086;2023-11-21T00:21:01;4.50;;;3.30;;
9288;SDS011;4683;50.864;12.086;2023-11-21T00:23:32;4.27;;;2.90;;
9288;SDS011;4683;50.864;12.086;2023-11-21T00:26:02;3.23;;;2.90;;
9288;SDS011;4683;50.864;12.086;2023-11-21T00:28:31;6.17;;;3.17;;
9288;SDS011;4683;50.864;12.086;2023-11-21T00:31:00;4.60;;;3.17;;
9288;SDS011;4683;50.864;12.086;2023-11-21T00:33:29;5.03;;;3.87;;
9288;SDS011;4683;50.864;12.086;2023-11-21T00:35:59;3.93;;;2.97;;
9288;SDS011;4683;50.864;12.086;2023-11-21T00:38:27;3.47;;;2.53;;
9288;SDS011;4683;50.864;12.086;2023-11-21T00:40:58;2.73;;;2.53;;
9288;SDS011;4683;50.864;12.086;2023-11-21T00:43:28;3.40;;;2.70;;
9288;SDS011;4683;50.864;12.086;2023-11-21T00:45:56;5.97;;;2.60;;
9288;SDS011;4683;50.864;12.086;2023-11-21T00:48:25;5.73;;;2.47;;
9288;SDS011;4683;50.864;12.086;2023-11-21T00:50:56;2.30;;;2.10;;
9288;SDS011;4683;50.864;12.086;2023-11-21T00:53:24;2.17;;;2.07;;
9288;SDS011;4683;50.864;12.086;2023-11-21T00:55:53;2.70;;;2.50;;
9288;SDS011;4683;50.864;12.086;2023-11-21T00:58:25;2.07;;;1.97;;
9288;SDS011;4683;50.864;12.086;2023-11-21T01:00:54;2.73;;;2.43;;
9288;SDS011;4683;50.864;12.086;2023-11-21T01:03:24;3.00;;;2.10;;
9288;SDS011;4683;50.864;12.086;2023-11-21T01:05:52;4.43;;;2.40;;
9288;SDS011;4683;50.864;12.086;2023-11-21T01:08:21;2.60;;;2.40;;
9288;SDS011;4683;50.864;12.086;2023-11-21T01:10:52;2.30;;;2.10;;
9288;SDS011;4683;50.864;12.086;2023-11-21T01:13:22;3.43;;;2.40;;
9288;SDS011;4683;50.864;12.086;2023-11-21T01:15:58;2.47;;;2.27;;
9288;SDS011;4683;50.864;12.086;2023-11-21T01:18:27;2.70;;;2.30;;
9288;SDS011;4683;50.864;12.086;2023-11-21T01:20:55;4.77;;;2.83;;
9288;SDS011;4683;50.864;12.086;2023-11-21T01:23:25;4.23;;;2.57;;
9288;SDS011;4683;50.864;12.086;2023-11-21T01:25:55;3.80;;;3.00;;
9288;SDS011;4683;50.864;12.086;2023-11-21T01:28:24;4.53;;;2.83;;
9288;SDS011;4683;50.864;12.086;2023-11-21T01:30:53;3.47;;;2.90;;
9288;SDS011;4683;50.864;12.086;2023-11-21T01:33:24;3.10;;;2.80;;
9288;SDS011;4683;50.864;12.086;2023-11-21T01:35:54;4.00;;;3.27;;
9288;SDS011;4683;50.864;12.086;2023-11-21T01:38:24;3.93;;;3.00;;
9288;SDS011;4683;50.864;12.086;2023-11-21T01:40:52;3.53;;;3.10;;
9288;SDS011;4683;50.864;12.086;2023-11-21T01:43:20;3.40;;;3.10;;
9288;SDS011;4683;50.864;12.086;2023-11-21T01:45:48;3.70;;;3.30;;
9288;SDS011;4683;50.864;12.086;2023-11-21T01:48:17;3.60;;;3.10;;
9288;SDS011;4683;50.864;12.086;2023-11-21T01:50:49;3.70;;;2.97;;
9288;SDS011;4683;50.864;12.086;2023-11-21T01:53:18;3.37;;;3.07;;
9288;SDS011;4683;50.864;12.086;2023-11-21T01:55:51;4.27;;;3.07;;
9288;SDS011;4683;50.864;12.086;2023-11-21T01:58:22;4.53;;;3.13;;
9288;SDS011;4683;50.864;12.086;2023-11-21T02:00:51;4.90;;;3.67;;
9288;SDS011;4683;50.864;12.086;2023-11-21T02:03:21;5.73;;;4.27;;
9288;SDS011;4683;50.864;12.086;2023-11-21T02:05:53;4.27;;;3.33;;
9288;SDS011;4683;50.864;12.086;2023-11-21T02:08:22;5.00;;;3.73;;
9288;SDS011;4683;50.864;12.086;2023-11-21T02:10:51;7.63;;;3.67;;
9288;SDS011;4683;50.864;12.086;2023-11-21T02:13:20;4.40;;;3.67;;
9288;SDS011;4683;50.864;12.086;2023-11-21T02:15:49;4.17;;;3.77;;
9288;SDS011;4683;50.864;12.086;2023-11-21T02:18:21;4.20;;;3.40;;
9288;SDS011;4683;50.864;12.086;2023-11-21T02:20:51;5.40;;;3.40;;
9288;SDS011;4683;50.864;12.086;2023-11-21T02:23:22;4.50;;;3.63;;
9288;SDS011;4683;50.864;12.086;2023-11-21T02:25:56;5.10;;;3.40;;
9288;SDS011;4683;50.864;12.086;2023-11-21T02:28:26;3.47;;;3.17;;
9288;SDS011;4683;50.864;12.086;2023-11-21T02:30:56;3.80;;;2.83;;
9288;SDS011;4683;50.864;12.086;2023-11-21T02:33:26;2.60;;;2.40;;
9288;SDS011;4683;50.864;12.086;2023-11-21T02:35:56;2.70;;;2.50;;
9288;SDS011;4683;50.864;12.086;2023-11-21T02:38:33;4.50;;;2.30;;
9288;SDS011;4683;50.864;12.086;2023-11-21T02:41:02;3.60;;;2.80;;
9288;SDS011;4683;50.864;12.086;2023-11-21T02:43:31;3.00;;;2.57;;
9288;SDS011;4683;50.864;12.086;2023-11-21T02:46:00;3.90;;;2.40;;
9288;SDS011;4683;50.864;12.086;2023-11-21T02:48:29;3.67;;;2.43;;
9288;SDS011;4683;50.864;12.086;2023-11-21T02:50:59;2.40;;;2.20;;
9288;SDS011;4683;50.864;12.086;2023-11-21T02:53:33;3.37;;;2.50;;
9288;SDS011;4683;50.864;12.086;2023-11-21T02:56:01;3.57;;;2.60;;
9288;SDS011;4683;50.864;12.086;2023-11-21T02:58:30;2.93;;;2.63;;
9288;SDS011;4683;50.864;12.086;2023-11-21T03:00:59;3.60;;;2.97;;
9288;SDS011;4683;50.864;12.086;2023-11-21T03:03:30;4.17;;;2.87;;
9288;SDS011;4683;50.864;12.086;2023-11-21T03:05:59;5.23;;;3.30;;
9288;SDS011;4683;50.864;12.086;2023-11-21T03:08:28;4.70;;;3.40;;
9288;SDS011;4683;50.864;12.086;2023-11-21T03:10:58;4.03;;;3.20;;
9288;SDS011;4683;50.864;12.086;2023-11-21T03:13:29;5.00;;;3.43;;
9288;SDS011;4683;50.864;12.086;2023-11-21T03:16:02;4.97;;;3.43;;
9288;SDS011;4683;50.864;12.086;2023-11-21T03:18:32;4.73;;;3.40;;
9288;SDS011;4683;50.864;12.086;2023-11-21T03:21:02;6.67;;;3.83;;
9288;SDS011;4683;50.864;12.086;2023-11-21T03:23:36;4.83;;;3.37;;
9288;SDS011;4683;50.864;12.086;2023-11-21T03:26:11;4.53;;;3.33;;
9288;SDS011;4683;50.864;12.086;2023-11-21T03:28:41;3.50;;;3.20;;
9288;SDS011;4683;50.864;12.086;2023-11-21T03:31:13;3.47;;;2.80;;
9288;SDS011;4683;50.864;12.086;2023-11-21T03:33:42;3.50;;;2.83;;
9288;SDS011;4683;50.864;12.086;2023-11-21T03:36:16;3.97;;;2.57;;
9288;SDS011;4683;50.864;12.086;2023-11-21T03:38:47;5.00;;;3.40;;
9288;SDS011;4683;50.864;12.086;2023-11-21T03:41:16;4.07;;;3.00;;
9288;SDS011;4683;50.864;12.086;2023-11-21T03:43:48;8.33;;;5.43;;
9288;SDS011;4683;50.864;12.086;2023-11-21T03:46:20;5.23;;;3.90;;
9288;SDS011;4683;50.864;12.086;2023-11-21T03:48:49;4.53;;;3.60;;
9288;SDS011;4683;50.864;12.086;2023-11-21T03:51:17;3.70;;;3.40;;
9288;SDS011;4683;50.864;12.086;2023-11-21T03:53:48;6.47;;;4.43;;
9288;SDS011;4683;50.864;12.086;2023-11-21T03:56:18;5.13;;;4.37;;
9288;SDS011;4683;50.864;12.086;2023-11-21T03:58:47;4.67;;;3.40;;
9288;SDS011;4683;50.864;12.086;2023-11-21T04:01:20;3.73;;;3.37;;
9288;SDS011;4683;50.864;12.086;2023-11-21T04:03:48;5.60;;;3.43;;
9288;SDS011;4683;50.864;12.086;2023-11-21T04:06:17;6.70;;;3.67;;
9288;SDS011;4683;50.864;12.086;2023-11-21T04:08:48;5.27;;;3.57;;
9288;SDS011;4683;50.864;12.086;2023-11-21T04:15:26;6.80;;;3.60;;
9288;SDS011;4683;50.864;12.086;2023-11-21T04:17:55;4.60;;;3.60;;
9288;SDS011;4683;50.864;12.086;2023-11-21T04:20:24;6.57;;;3.80;;
9288;SDS011;4683;50.864;12.086;2023-11-21T04:22:55;5.53;;;4.27;;
9288;SDS011;4683;50.864;12.086;2023-11-21T04:25:25;4.07;;;3.77;;
9288;SDS011;4683;50.864;12.086;2023-11-21T04:27:54;4.63;;;3.40;;
9288;SDS011;4683;50.864;12.086;2023-11-21T04:30:22;6.07;;;4.67;;
9288;SDS011;4683;50.864;12.086;2023-11-21T04:32:51;8.53;;;4.90;;
9288;SDS011;4683;50.864;12.086;2023-11-21T04:35:22;5.90;;;3.63;;
9288;SDS011;4683;50.864;12.086;2023-11-21T04:37:51;3.77;;;3.07;;
9288;SDS011;4683;50.864;12.086;2023-11-21T04:40:21;3.57;;;3.27;;
9288;SDS011;4683;50.864;12.086;2023-11-21T04:42:59;6.27;;;3.40;;
9288;SDS011;4683;50.864;12.086;2023-11-21T04:45:28;4.87;;;3.50;;
9288;SDS011;4683;50.864;12.086;2023-11-21T04:47:56;5.77;;;3.30;;
9288;SDS011;4683;50.864;12.086;2023-11-21T04:50:25;3.40;;;2.83;;
9288;SDS011;4683;50.864;12.086;2023-11-21T04:52:55;3.43;;;2.67;;
9288;SDS011;4683;50.864;12.086;2023-11-21T04:55:25;4.23;;;3.33;;
9288;SDS011;4683;50.864;12.086;2023-11-21T04:57:59;5.97;;;3.80;;
9288;SDS011;4683;50.864;12.086;2023-11-21T05:00:27;4.57;;;3.50;;
9288;SDS011;4683;50.864;12.086;2023-11-21T05:02:56;3.67;;;3.37;;
9288;SDS011;4683;50.864;12.086;2023-11-21T05:05:24;4.27;;;2.90;;
9288;SDS011;4683;50.864;12.086;2023-11-21T05:07:53;5.97;;;3.43;;
9288;SDS011;4683;50.864;12.086;2023-11-21T05:10:22;6.13;;;4.20;;
9288;SDS011;4683;50.864;12.086;2023-11-21T05:12:50;5.60;;;3.43;;
9288;SDS011;4683;50.864;12.086;2023-11-21T05:15:20;5.50;;;3.60;;
9288;SDS011;4683;50.864;12.086;2023-11-21T05:17:49;4.10;;;3.70;;
9288;SDS011;4683;50.864;12.086;2023-11-21T05:20:19;5.37;;;3.37;;
9288;SDS011;4683;50.864;12.086;2023-11-21T05:22:49;3.87;;;3.47;;
9288;SDS011;4683;50.864;12.086;2023-11-21T05:25:19;4.57;;;3.43;;
9288;SDS011;4683;50.864;12.086;2023-11-21T05:27:48;4.13;;;3.00;;
9288;SDS011;4683;50.864;12.086;2023-11-21T05:30:17;4.67;;;3.40;;
9288;SDS011;4683;50.864;12.086;2023-11-21T05:32:48;4.97;;;3.30;;
9288;SDS011;4683;50.864;12.086;2023-11-21T05:35:17;3.77;;;3.30;;
9288;SDS011;4683;50.864;12.086;2023-11-21T05:37:46;3.80;;;3.40;;
9288;SDS011;4683;50.864;12.086;2023-11-21T05:40:19;3.30;;;3.00;;
9288;SDS011;4683;50.864;12.086;2023-11-21T05:42:51;4.07;;;3.10;;
9288;SDS011;4683;50.864;12.086;2023-11-21T05:45:20;4.07;;;3.33;;
9288;SDS011;4683;50.864;12.086;2023-11-21T05:47:49;4.17;;;3.40;;
9288;SDS011;4683;50.864;12.086;2023-11-21T05:50:18;4.43;;;3.00;;
9288;SDS011;4683;50.864;12.086;2023-11-21T05:52:48;3.83;;;2.70;;
9288;SDS011;4683;50.864;12.086;2023-11-21T05:55:17;3.13;;;2.53;;
9288;SDS011;4683;50.864;12.086;2023-11-21T05:57:55;3.97;;;3.00;;
9288;SDS011;4683;50.864;12.086;2023-11-21T06:00:31;4.33;;;3.70;;
9288;SDS011;4683;50.864;12.086;2023-11-21T06:03:01;4.70;;;3.17;;
9288;SDS011;4683;50.864;12.086;2023-11-21T06:05:32;4.83;;;3.13;;
9288;SDS011;4683;50.864;12.086;2023-11-21T06:08:03;4.00;;;2.90;;
9288;SDS011;4683;50.864;12.086;2023-11-21T06:10:33;4.23;;;2.53;;
9288;SDS011;4683;50.864;12.086;2023-11-21T06:13:02;3.57;;;2.90;;
9288;SDS011;4683;50.864;12.086;2023-11-21T06:15:40;4.97;;;3.23;;
9288;SDS011;4683;50.864;12.086;2023-11-21T06:18:11;3.50;;;3.20;;
9288;SDS011;4683;50.864;12.086;2023-11-21T06:20:43;3.40;;;3.00;;
9288;SDS011;4683;50.864;12.086;2023-11-21T06:23:15;2.80;;;2.60;;
9288;SDS011;4683;50.864;12.086;2023-11-21T06:25:44;3.30;;;2.93;;
9288;SDS011;4683;50.864;12.086;2023-11-21T06:28:14;3.00;;;2.70;;
9288;SDS011;4683;50.864;12.086;2023-11-21T06:30:45;3.80;;;3.40;;
9288;SDS011;4683;50.864;12.086;2023-11-21T06:33:15;4.47;;;3.00;;
9288;SDS011;4683;50.864;12.086;2023-11-21T06:35:48;3.50;;;3.00;;
9288;SDS011;4683;50.864;12.086;2023-11-21T06:38:21;4.97;;;2.87;;
9288;SDS011;4683;50.864;12.086;2023-11-21T06:40:50;4.63;;;3.07;;
9288;SDS011;4683;50.864;12.086;2023-11-21T06:43:19;4.33;;;3.30;;
9288;SDS011;4683;50.864;12.086;2023-11-21T06:45:51;4.93;;;2.90;;
9288;SDS011;4683;50.864;12.086;2023-11-21T06:48:20;7.00;;;3.57;;
9288;SDS011;4683;50.864;12.086;2023-11-21T06:50:49;3.53;;;2.93;;
9288;SDS011;4683;50.864;12.086;2023-11-21T06:53:18;4.23;;;2.93;;
9288;SDS011;4683;50.864;12.086;2023-11-21T06:55:47;3.93;;;2.83;;
9288;SDS011;4683;50.864;12.086;2023-11-21T06:58:18;4.30;;;2.80;;
9288;SDS011;4683;50.864;12.086;2023-11-21T07:00:49;4.60;;;3.50;;
9288;SDS011;4683;50.864;12.086;2023-11-21T07:03:27;3.60;;;2.90;;
9288;SDS011;4683;50.864;12.086;2023-11-21T07:06:00;4.03;;;3.17;;
9288;SDS011;4683;50.864;12.086;2023-11-21T07:08:32;4.47;;;3.20;;
9288;SDS011;4683;50.864;12.086;2023-11-21T07:11:13;5.83;;;3.37;;
9288;SDS011;4683;50.864;12.086;2023-11-21T07:13:50;4.07;;;3.37;;
9288;SDS011;4683;50.864;12.086;2023-11-21T07:16:53;5.10;;;4.60;;
9288;SDS011;4683;50.864;12.086;2023-11-21T07:19:58;6.57;;;5.43;;
9288;SDS011;4683;50.864;12.086;2023-11-21T07:22:55;9.53;;;7.87;;
9288;SDS011;4683;50.864;12.086;2023-11-21T07:25:26;8.03;;;5.87;;
9288;SDS011;4683;50.864;12.086;2023-11-21T07:28:05;8.47;;;5.83;;
9288;SDS011;4683;50.864;12.086;2023-11-21T07:30:50;6.63;;;6.03;;
9288;SDS011;4683;50.864;12.086;2023-11-21T07:33:31;5.73;;;5.23;;
9288;SDS011;4683;50.864;12.086;2023-11-21T07:36:23;4.53;;;4.13;;
9288;SDS011;4683;50.864;12.086;2023-11-21T07:38:59;5.37;;;4.00;;
9288;SDS011;4683;50.864;12.086;2023-11-21T07:41:36;5.47;;;4.37;;
9288;SDS011;4683;50.864;12.086;2023-11-21T07:44:12;7.17;;;4.53;;
9288;SDS011;4683;50.864;12.086;2023-11-21T07:46:56;8.40;;;5.53;;
9288;SDS011;4683;50.864;12.086;2023-11-21T07:49:50;6.27;;;4.60;;
9288;SDS011;4683;50.864;12.086;2023-11-21T07:52:26;10.00;;;4.53;;
9288;SDS011;4683;50.864;12.086;2023-11-21T07:55:23;5.60;;;4.10;;
9288;SDS011;4683;50.864;12.086;2023-11-21T07:59:03;6.07;;;4.07;;
9288;SDS011;4683;50.864;12.086;2023-11-21T08:02:02;4.97;;;4.47;;
9288;SDS011;4683;50.864;12.086;2023-11-21T08:04:52;5.90;;;4.33;;
9288;SDS011;4683;50.864;12.086;2023-11-21T08:07:27;8.97;;;4.60;;
9288;SDS011;4683;50.864;12.086;2023-11-21T08:10:12;6.47;;;4.80;;
9288;SDS011;4683;50.864;12.086;2023-11-21T08:12:43;4.97;;;4.47;;
9288;SDS011;4683;50.864;12.086;2023-11-21T08:15:27;6.87;;;4.70;;
9288;SDS011;4683;50.864;12.086;2023-11-21T08:18:06;6.40;;;4.33;;
9288;SDS011;4683;50.864;12.086;2023-11-21T08:21:30;6.63;;;4.47;;
9288;SDS011;4683;50.864;12.086;2023-11-21T08:24:36;5.47;;;4.90;;
9288;SDS011;4683;50.864;12.086;2023-11-21T08:27:18;6.43;;;4.90;;
9288;SDS011;4683;50.864;12.086;2023-11-21T08:30:02;9.10;;;5.17;;
9288;SDS011;4683;50.864;12.086;2023-11-21T08:32:40;6.83;;;4.70;;
9288;SDS011;4683;50.864;12.086;2023-11-21T08:35:10;7.37;;;4.70;;
9288;SDS011;4683;50.864;12.086;2023-11-21T08:37:42;6.43;;;4.67;;
9288;SDS011;4683;50.864;12.086;2023-11-21T08:40:11;9.57;;;5.60;;
9288;SDS011;4683;50.864;12.086;2023-11-21T08:42:43;5.90;;;5.30;;
9288;SDS011;4683;50.864;12.086;2023-11-21T08:45:14;9.30;;;4.90;;
9288;SDS011;4683;50.864;12.086;2023-11-21T08:47:45;6.90;;;5.33;;
9288;SDS011;4683;50.864;12.086;2023-11-21T08:50:14;8.10;;;5.27;;
9288;SDS011;4683;50.864;12.086;2023-11-21T08:52:46;7.10;;;5.10;;
9288;SDS011;4683;50.864;12.086;2023-11-21T08:55:15;8.30;;;5.23;;
9288;SDS011;4683;50.864;12.086;2023-11-21T08:57:45;7.03;;;5.67;;
9288;SDS011;4683;50.864;12.086;2023-11-21T09:00:16;7.53;;;5.93;;
9288;SDS011;4683;50.864;12.086;2023-11-21T09:02:45;6.00;;;5.37;;
9288;SDS011;4683;50.864;12.086;2023-11-21T09:05:15;9.47;;;5.77;;
9288;SDS011;4683;50.864;12.086;2023-11-21T09:07:48;8.63;;;6.00;;
9288;SDS011;4683;50.864;12.086;2023-11-21T09:10:17;8.60;;;6.37;;
9288;SDS011;4683;50.864;12.086;2023-11-21T09:12:49;9.63;;;6.40;;
9288;SDS011;4683;50.864;12.086;2023-11-21T09:15:20;8.00;;;6.40;;
9288;SDS011;4683;50.864;12.086;2023-11-21T09:17:51;8.50;;;6.13;;
9288;SDS011;4683;50.864;12.086;2023-11-21T09:20:20;8.83;;;5.90;;
9288;SDS011;4683;50.864;12.086;2023-11-21T09:22:51;9.23;;;6.97;;
9288;SDS011;4683;50.864;12.086;2023-11-21T09:25:20;8.90;;;6.30;;
9288;SDS011;4683;50.864;12.086;2023-11-21T09:28:01;9.27;;;6.00;;
9288;SDS011;4683;50.864;12.086;2023-11-21T09:30:34;11.30;;;6.47;;
9288;SDS011;4683;50.864;12.086;2023-11-21T09:33:03;8.77;;;6.30;;
9288;SDS011;4683;50.864;12.086;2023-11-21T09:35:36;7.13;;;6.43;;
9288;SDS011;4683;50.864;12.086;2023-11-21T09:38:08;7.80;;;5.90;;
9288;SDS011;4683;50.864;12.086;2023-11-21T09:40:37;8.57;;;6.77;;
9288;SDS011;4683;50.864;12.086;2023-11-21T09:43:08;7.53;;;6.57;;
9288;SDS011;4683;50.864;12.086;2023-11-21T09:45:54;8.03;;;6.23;;
9288;SDS011;4683;50.864;12.086;2023-11-21T09:48:31;8.13;;;5.87;;
9288;SDS011;4683;50.864;12.086;2023-11-21T09:51:03;7.20;;;5.60;;
9288;SDS011;4683;50.864;12.086;2023-11-21T09:53:36;7.00;;;6.30;;
9288;SDS011;4683;50.864;12.086;2023-11-21T09:56:06;8.97;;;6.77;;
9288;SDS011;4683;50.864;12.086;2023-11-21T09:58:39;10.03;;;6.73;;
9288;SDS011;4683;50.864;12.086;2023-11-21T10:01:10;7.13;;;6.43;;
9288;SDS011;4683;50.864;12.086;2023-11-21T10:07:50;6.90;;;6.27;;
9288;SDS011;4683;50.864;12.086;2023-11-21T10:10:22;10.33;;;7.53;;
9288;SDS011;4683;50.864;12.086;2023-11-21T10:12:53;9.23;;;7.80;;
9288;SDS011;4683;50.864;12.086;2023-11-21T10:15:29;9.37;;;7.60;;
9288;SDS011;4683;50.864;12.086;2023-11-21T10:18:02;15.07;;;10.80;;
9288;SDS011;4683;50.864;12.086;2023-11-21T10:20:35;10.77;;;8.70;;
9288;SDS011;4683;50.864;12.086;2023-11-21T10:23:06;10.00;;;8.67;;
9288;SDS011;4683;50.864;12.086;2023-11-21T10:25:40;10.33;;;7.97;;
9288;SDS011;4683;50.864;12.086;2023-11-21T10:28:09;10.33;;;8.53;;
9288;SDS011;4683;50.864;12.086;2023-11-21T10:30:38;12.00;;;9.30;;
9288;SDS011;4683;50.864;12.086;2023-11-21T10:33:08;11.87;;;8.73;;
9288;SDS011;4683;50.864;12.086;2023-11-21T10:35:42;16.07;;;10.70;;
9288;SDS011;4683;50.864;12.086;2023-11-21T10:38:18;15.73;;;11.40;;
9288;SDS011;4683;50.864;12.086;2023-11-21T10:40:52;15.37;;;11.77;;
9288;SDS011;4683;50.864;12.086;2023-11-21T10:43:42;16.77;;;11.87;;
9288;SDS011;4683;50.864;12.086;2023-11-21T10:46:11;19.40;;;12.37;;
9288;SDS011;4683;50.864;12.086;2023-11-21T10:48:43;18.00;;;12.37;;
9288;SDS011;4683;50.864;12.086;2023-11-21T10:51:14;18.40;;;12.37;;
9288;SDS011;4683;50.864;12.086;2023-11-21T10:53:46;17.43;;;12.57;;
9288;SDS011;4683;50.864;12.086;2023-11-21T10:56:22;18.47;;;13.33;;
9288;SDS011;4683;50.864;12.086;2023-11-21T10:58:54;18.07;;;13.07;;
9288;SDS011;4683;50.864;12.086;2023-11-21T11:01:24;17.07;;;13.07;;
9288;SDS011;4683;50.864;12.086;2023-11-21T11:03:57;20.03;;;13.83;;
9288;SDS011;4683;50.864;12.086;2023-11-21T11:06:40;21.97;;;13.50;;
9288;SDS011;4683;50.864;12.086;2023-11-21T11:09:21;23.03;;;14.10;;
9288;SDS011;4683;50.864;12.086;2023-11-21T11:11:54;18.73;;;13.60;;
9288;SDS011;4683;50.864;12.086;2023-11-21T11:14:24;21.13;;;14.30;;
9288;SDS011;4683;50.864;12.086;2023-11-21T11:17:01;26.87;;;15.13;;
9288;SDS011;4683;50.864;12.086;2023-11-21T11:19:32;23.43;;;14.33;;
9288;SDS011;4683;50.864;12.086;2023-11-21T11:22:04;21.53;;;14.50;;
9288;SDS011;4683;50.864;12.086;2023-11-21T11:25:06;20.40;;;13.70;;
9288;SDS011;4683;50.864;12.086;2023-11-21T11:28:04;19.37;;;13.57;;
9288;SDS011;4683;50.864;12.086;2023-11-21T11:30:44;21.20;;;14.57;;
9288;SDS011;4683;50.864;12.086;2023-11-21T11:33:34;28.13;;;14.80;;
9288;SDS011;4683;50.864;12.086;2023-11-21T11:36:13;27.13;;;14.97;;
9288;SDS011;4683;50.864;12.086;2023-11-21T11:38:58;22.43;;;14.23;;
9288;SDS011;4683;50.864;12.086;2023-11-21T11:41:30;23.23;;;15.03;;
9288;SDS011;4683;50.864;12.086;2023-11-21T11:44:02;23.77;;;14.57;;
9288;SDS011;4683;50.864;12.086;2023-11-21T11:46:53;22.73;;;14.70;;
9288;SDS011;4683;50.864;12.086;2023-11-21T11:49:25;23.17;;;14.87;;
9288;SDS011;4683;50.864;12.086;2023-11-21T11:55:05;19.27;;;12.97;;
9288;SDS011;4683;50.864;12.086;2023-11-21T11:57:41;15.60;;;11.07;;
9288;SDS011;4683;50.864;12.086;2023-11-21T12:00:16;15.87;;;9.70;;
9288;SDS011;4683;50.864;12.086;2023-11-21T12:02:52;17.37;;;11.30;;
9288;SDS011;4683;50.864;12.086;2023-11-21T12:05:26;15.37;;;11.93;;
9288;SDS011;4683;50.864;12.086;2023-11-21T12:07:55;19.77;;;12.53;;
9288;SDS011;4683;50.864;12.086;2023-11-21T12:10:27;16.00;;;11.63;;
9288;SDS011;4683;50.864;12.086;2023-11-21T12:12:59;13.17;;;9.90;;
9288;SDS011;4683;50.864;12.086;2023-11-21T12:15:33;15.60;;;9.73;;
9288;SDS011;4683;50.864;12.086;2023-11-21T12:18:05;12.47;;;8.20;;
9288;SDS011;4683;50.864;12.086;2023-11-21T12:20:35;10.67;;;8.10;;
9288;SDS011;4683;50.864;12.086;2023-11-21T12:23:08;6.13;;;5.40;;
9288;SDS011;4683;50.864;12.086;2023-11-21T12:25:41;5.47;;;4.70;;
9288;SDS011;4683;50.864;12.086;2023-11-21T12:28:12;5.40;;;4.43;;
9288;SDS011;4683;50.864;12.086;2023-11-21T12:30:44;4.80;;;4.40;;
9288;SDS011;4683;50.864;12.086;2023-11-21T12:33:15;4.30;;;3.90;;
9288;SDS011;4683;50.864;12.086;2023-11-21T12:35:44;4.80;;;4.40;;
9288;SDS011;4683;50.864;12.086;2023-11-21T12:38:18;5.83;;;5.20;;
9288;SDS011;4683;50.864;12.086;2023-11-21T12:41:19;5.73;;;4.70;;
9288;SDS011;4683;50.864;12.086;2023-11-21T12:43:51;5.53;;;4.93;;
9288;SDS011;4683;50.864;12.086;2023-11-21T12:46:25;7.03;;;4.93;;
9288;SDS011;4683;50.864;12.086;2023-11-21T12:49:00;6.57;;;5.17;;
9288;SDS011;4683;50.864;12.086;2023-11-21T12:51:31;8.10;;;5.47;;
9288;SDS011;4683;50.864;12.086;2023-11-21T12:54:00;8.43;;;6.00;;
9288;SDS011;4683;50.864;12.086;2023-11-21T12:56:32;4.60;;;4.07;;
9288;SDS011;4683;50.864;12.086;2023-11-21T12:59:02;5.30;;;4.47;;
9288;SDS011;4683;50.864;12.086;2023-11-21T13:01:32;4.40;;;4.00;;
9288;SDS011;4683;50.864;12.086;2023-11-21T13:04:04;3.50;;;3.20;;
9288;SDS011;4683;50.864;12.086;2023-11-21T13:06:38;3.47;;;3.17;;
9288;SDS011;4683;50.864;12.086;2023-11-21T13:09:08;3.60;;;3.30;;
9288;SDS011;4683;50.864;12.086;2023-11-21T13:11:39;3.40;;;3.10;;
9288;SDS011;4683;50.864;12.086;2023-11-21T13:14:12;3.70;;;3.40;;
9288;SDS011;4683;50.864;12.086;2023-11-21T13:16:45;4.53;;;4.13;;
9288;SDS011;4683;50.864;12.086;2023-11-21T13:19:16;5.10;;;4.60;;
9288;SDS011;4683;50.864;12.086;2023-11-21T13:21:48;5.97;;;5.37;;
9288;SDS011;4683;50.864;12.086;2023-11-21T13:24:18;6.90;;;5.90;;
9288;SDS011;4683;50.864;12.086;2023-11-21T13:26:48;7.37;;;6.50;;
9288;SDS011;4683;50.864;12.086;2023-11-21T13:29:20;9.73;;;7.93;;
9288;SDS011;4683;50.864;12.086;2023-11-21T13:31:55;11.27;;;9.00;;
9288;SDS011;4683;50.864;12.086;2023-11-21T13:34:26;11.70;;;10.53;;
9288;SDS011;4683;50.864;12.086;2023-11-21T13:36:56;12.27;;;10.03;;
9288;SDS011;4683;50.864;12.086;2023-11-21T13:39:30;12.77;;;10.40;;
9288;SDS011;4683;50.864;12.086;2023-11-21T13:42:03;14.13;;;11.27;;
9288;SDS011;4683;50.864;12.086;2023-11-21T13:44:33;12.80;;;11.23;;
9288;SDS011;4683;50.864;12.086;2023-11-21T13:47:07;15.57;;;12.47;;
9288;SDS011;4683;50.864;12.086;2023-11-21T13:49:36;16.73;;;12.60;;
9288;SDS011;4683;50.864;12.086;2023-11-21T13:52:07;14.27;;;12.33;;
9288;SDS011;4683;50.864;12.086;2023-11-21T13:54:42;14.53;;;11.73;;
9288;SDS011;4683;50.864;12.086;2023-11-21T13:57:14;13.07;;;11.67;;
9288;SDS011;4683;50.864;12.086;2023-11-21T13:59:43;13.07;;;11.53;;
9288;SDS011;4683;50.864;12.086;2023-11-21T14:02:14;15.93;;;12.00;;
9288;SDS011;4683;50.864;12.086;2023-11-21T14:04:44;13.40;;;10.70;;
9288;SDS011;4683;50.864;12.086;2023-11-21T14:07:25;11.17;;;9.63;;
9288;SDS011;4683;50.864;12.086;2023-11-21T14:10:01;11.43;;;9.20;;
9288;SDS011;4683;50.864;12.086;2023-11-21T14:12:31;16.43;;;12.70;;
9288;SDS011;4683;50.864;12.086;2023-11-21T14:15:06;9.77;;;8.07;;
9288;SDS011;4683;50.864;12.086;2023-11-21T14:17:45;14.53;;;10.57;;
9288;SDS011;4683;50.864;12.086;2023-11-21T14:20:19;10.33;;;8.50;;
9288;SDS011;4683;50.864;12.086;2023-11-21T14:22:49;11.93;;;9.10;;
9288;SDS011;4683;50.864;12.086;2023-11-21T14:25:19;7.47;;;6.20;;
9288;SDS011;4683;50.864;12.086;2023-11-21T14:27:50;5.67;;;4.80;;
9288;SDS011;4683;50.864;12.086;2023-11-21T14:30:19;5.63;;;4.13;;
9288;SDS011;4683;50.864;12.086;2023-11-21T14:32:51;4.03;;;3.50;;
9288;SDS011;4683;50.864;12.086;2023-11-21T14:35:21;3.97;;;3.60;;
9288;SDS011;4683;50.864;12.086;2023-11-21T14:37:50;3.40;;;3.10;;
9288;SDS011;4683;50.864;12.086;2023-11-21T14:40:20;4.73;;;4.13;;
9288;SDS011;4683;50.864;12.086;2023-11-21T14:42:50;3.63;;;3.20;;
9288;SDS011;4683;50.864;12.086;2023-11-21T14:45:23;3.27;;;2.20;;
9288;SDS011;4683;50.864;12.086;2023-11-21T14:48:00;3.70;;;3.27;;
9288;SDS011;4683;50.864;12.086;2023-11-21T14:50:44;4.37;;;3.50;;
9288;SDS011;4683;50.864;12.086;2023-11-21T14:53:39;2.87;;;2.63;;
9288;SDS011;4683;50.864;12.086;2023-11-21T14:56:12;5.23;;;4.20;;
9288;SDS011;4683;50.864;12.086;2023-11-21T14:58:49;6.20;;;4.80;;
9288;SDS011;4683;50.864;12.086;2023-11-21T15:01:17;5.73;;;5.13;;
9288;SDS011;4683;50.864;12.086;2023-11-21T15:04:02;6.90;;;6.20;;
9288;SDS011;4683;50.864;12.086;2023-11-21T15:06:38;10.97;;;8.00;;
9288;SDS011;4683;50.864;12.086;2023-11-21T15:09:10;10.27;;;7.97;;
9288;SDS011;4683;50.864;12.086;2023-11-21T15:12:08;11.37;;;7.93;;
9288;SDS011;4683;50.864;12.086;2023-11-21T15:14:42;10.43;;;8.60;;
9288;SDS011;4683;50.864;12.086;2023-11-21T15:17:16;10.80;;;7.90;;
9288;SDS011;4683;50.864;12.086;2023-11-21T15:19:53;9.53;;;8.50;;
9288;SDS011;4683;50.864;12.086;2023-11-21T15:22:22;9.93;;;7.90;;
9288;SDS011;4683;50.864;12.086;2023-11-21T15:24:54;14.27;;;9.53;;
9288;SDS011;4683;50.864;12.086;2023-11-21T15:27:24;11.43;;;9.73;;
9288;SDS011;4683;50.864;12.086;2023-11-21T15:29:55;11.83;;;8.63;;
9288;SDS011;4683;50.864;12.086;2023-11-21T15:32:23;11.70;;;9.83;;
9288;SDS011;4683;50.864;12.086;2023-11-21T15:34:55;11.00;;;8.37;;
9288;SDS011;4683;50.864;12.086;2023-11-21T15:37:24;9.23;;;8.33;;
9288;SDS011;4683;50.864;12.086;2023-11-21T15:39:54;10.50;;;8.17;;
9288;SDS011;4683;50.864;12.086;2023-11-21T15:42:24;11.00;;;8.10;;